createdAt,value
2017-10-20T00:00:17.550Z,53.17
2017-10-20T00:02:46.098Z,56.30
2017-10-20T00:07:49.359Z,59.60
2017-10-20T00:10:17.729Z,62.07
2017-10-20T00:12:46.161Z,41.30
2017-10-20T00:15:14.653Z,42.50
2017-10-20T00:17:43.022Z,46.40
2017-10-20T00:20:12.154Z,43.73
2017-10-20T00:22:40.565Z,40.30
2017-10-20T00:25:09.002Z,41.03
2017-10-20T00:27:37.691Z,47.33
2017-10-20T00:30:06.100Z,39.50
2017-10-20T00:32:34.491Z,43.30
2017-10-20T00:35:02.895Z,46.87
2017-10-20T00:37:31.732Z,37.97
2017-10-20T00:40:00.084Z,36.90
2017-10-20T00:42:28.520Z,32.23
2017-10-20T00:44:57.083Z,41.03
2017-10-20T00:47:25.468Z,36.60
2017-10-20T00:49:53.874Z,38.10
2017-10-20T00:52:23.100Z,32.80
2017-10-20T00:54:51.507Z,28.40
2017-10-20T00:57:19.934Z,32.73
2017-10-20T00:59:49.227Z,39.30
2017-10-20T01:02:18.585Z,41.37
2017-10-20T01:04:46.972Z,39.73
2017-10-20T01:07:15.436Z,45.40
2017-10-20T01:09:43.804Z,37.43
2017-10-20T01:12:12.177Z,40.70
2017-10-20T01:14:41.079Z,34.40
2017-10-20T01:17:09.451Z,33.17
2017-10-20T01:19:37.894Z,37.03
2017-10-20T01:22:07.131Z,40.23
2017-10-20T01:24:35.570Z,33.40
2017-10-20T01:27:04.232Z,40.30
2017-10-20T01:29:33.082Z,47.93
2017-10-20T01:32:01.520Z,50.13
2017-10-20T01:34:29.933Z,45.73
2017-10-20T01:36:58.563Z,48.67
2017-10-20T01:39:27.005Z,47.20
2017-10-20T01:41:55.465Z,55.73
2017-10-20T01:44:24.100Z,63.23
2017-10-20T01:46:52.578Z,52.10
2017-10-20T01:49:20.978Z,44.77
2017-10-20T01:51:49.487Z,61.83
2017-10-20T01:54:18.688Z,39.47
2017-10-20T01:56:47.116Z,46.07
2017-10-20T01:59:16.042Z,42.37
2017-10-20T02:01:44.470Z,38.53
2017-10-20T02:04:12.866Z,33.40
2017-10-20T02:06:41.285Z,33.83
2017-10-20T02:09:09.646Z,33.10
2017-10-20T02:11:38.052Z,38.83
2017-10-20T02:14:07.530Z,34.07
2017-10-20T02:16:36.194Z,26.83
2017-10-20T02:19:04.582Z,34.33
2017-10-20T02:21:33.354Z,32.90
2017-10-20T02:24:01.784Z,38.30
2017-10-20T02:26:30.982Z,27.10
2017-10-20T02:29:00.178Z,34.77
2017-10-20T02:31:29.738Z,31.20
2017-10-20T02:33:58.124Z,32.73
2017-10-20T02:36:26.543Z,31.70
2017-10-20T02:38:55.693Z,35.37
2017-10-20T02:41:24.129Z,35.43
2017-10-20T02:43:52.606Z,30.00
2017-10-20T02:46:20.985Z,46.23
2017-10-20T02:48:49.382Z,36.30
2017-10-20T02:51:17.874Z,34.23
2017-10-20T02:53:46.259Z,31.63
2017-10-20T02:56:14.638Z,30.37
2017-10-20T02:58:43.049Z,36.23
2017-10-20T03:01:11.441Z,35.30
2017-10-20T03:03:39.856Z,35.67
2017-10-20T03:06:08.330Z,42.60
2017-10-20T03:08:36.722Z,35.83
2017-10-20T03:11:05.102Z,37.03
2017-10-20T03:13:33.853Z,33.77
2017-10-20T03:16:02.979Z,35.93
2017-10-20T03:18:31.354Z,37.77
2017-10-20T03:20:59.763Z,35.30
2017-10-20T03:23:28.142Z,37.47
2017-10-20T03:25:56.535Z,30.27
2017-10-20T03:28:24.944Z,35.53
2017-10-20T03:30:53.391Z,36.43
2017-10-20T03:33:22.148Z,40.13
2017-10-20T03:35:50.926Z,33.53
2017-10-20T03:38:19.315Z,41.10
2017-10-20T03:40:47.679Z,33.97
2017-10-20T03:43:16.124Z,38.83
2017-10-20T03:45:44.520Z,37.40
2017-10-20T03:48:13.649Z,47.03
2017-10-20T03:50:42.066Z,31.53
2017-10-20T03:53:10.466Z,32.97
2017-10-20T03:55:38.903Z,38.17
2017-10-20T03:58:07.343Z,33.47
2017-10-20T04:00:36.472Z,30.60
2017-10-20T04:03:04.849Z,30.57
2017-10-20T04:05:33.287Z,33.37
2017-10-20T04:08:02.521Z,38.17
2017-10-20T04:10:30.989Z,35.97
2017-10-20T04:12:59.494Z,37.90
2017-10-20T04:15:27.927Z,35.43
2017-10-20T04:17:56.320Z,35.83
2017-10-20T04:20:24.915Z,33.17
2017-10-20T04:22:53.284Z,32.33
2017-10-20T04:25:21.655Z,26.70
2017-10-20T04:27:51.031Z,32.50
2017-10-20T04:30:19.407Z,32.03
2017-10-20T04:32:47.820Z,30.10
2017-10-20T04:35:16.576Z,30.13
2017-10-20T04:37:44.945Z,40.57
2017-10-20T04:40:13.327Z,30.27
2017-10-20T04:42:41.919Z,34.83
2017-10-20T04:45:11.290Z,30.63
2017-10-20T04:47:39.648Z,33.77
2017-10-20T04:50:08.292Z,34.67
2017-10-20T04:52:37.499Z,38.03
2017-10-20T04:55:06.636Z,31.07
2017-10-20T04:57:35.250Z,29.77
2017-10-20T05:00:03.684Z,34.27
2017-10-20T05:02:32.049Z,30.70
2017-10-20T05:05:00.796Z,29.70
2017-10-20T05:07:29.173Z,32.50
2017-10-20T05:09:57.603Z,33.53
2017-10-20T05:12:26.820Z,29.53
2017-10-20T05:14:55.185Z,46.33
2017-10-20T05:17:23.555Z,43.13
2017-10-20T05:19:51.951Z,46.13
2017-10-20T05:22:20.349Z,42.90
2017-10-20T05:24:48.711Z,48.23
2017-10-20T05:27:17.346Z,32.10
2017-10-20T05:29:46.481Z,41.90
2017-10-20T05:32:14.864Z,37.13
2017-10-20T05:34:43.350Z,30.13
2017-10-20T05:37:12.173Z,41.87
2017-10-20T05:39:40.558Z,33.10
2017-10-20T05:42:09.051Z,42.70
2017-10-20T05:44:37.527Z,34.67
2017-10-20T05:47:05.925Z,33.60
2017-10-20T05:49:35.175Z,32.17
2017-10-20T05:52:03.532Z,38.13
2017-10-20T05:54:31.933Z,31.37
2017-10-20T05:57:00.664Z,41.93
2017-10-20T05:59:30.004Z,29.30
2017-10-20T06:01:58.380Z,37.80
2017-10-20T06:04:26.817Z,37.53
2017-10-20T06:06:55.991Z,31.20
2017-10-20T06:09:25.196Z,30.43
2017-10-20T06:11:53.600Z,36.30
2017-10-20T06:14:22.754Z,32.00
2017-10-20T06:16:51.152Z,30.23
2017-10-20T06:19:19.596Z,32.70
2017-10-20T06:21:47.965Z,33.47
2017-10-20T06:24:16.374Z,39.07
2017-10-20T06:26:45.066Z,41.00
2017-10-20T06:29:13.453Z,34.50
2017-10-20T06:31:41.842Z,41.93
2017-10-20T06:34:10.253Z,29.77
2017-10-20T06:36:39.446Z,29.73
2017-10-20T06:39:08.800Z,31.90
2017-10-20T06:41:37.380Z,43.90
2017-10-20T06:44:05.811Z,39.77
2017-10-20T06:46:34.250Z,39.00
2017-10-20T06:49:02.825Z,33.00
2017-10-20T06:51:31.295Z,35.20
2017-10-20T06:53:59.708Z,29.23
2017-10-20T06:56:28.486Z,33.90
2017-10-20T06:58:56.869Z,30.03
2017-10-20T07:01:25.287Z,32.77
2017-10-20T07:03:54.719Z,33.57
2017-10-20T07:06:23.144Z,37.03
2017-10-20T07:08:51.591Z,38.87
2017-10-20T07:11:20.031Z,35.77
2017-10-20T07:13:48.792Z,39.97
2017-10-20T07:16:17.244Z,37.43
2017-10-20T07:18:45.834Z,36.20
2017-10-20T07:21:14.240Z,33.07
2017-10-20T07:23:43.434Z,31.57
2017-10-20T07:26:11.912Z,36.67
2017-10-20T07:28:41.097Z,33.83
2017-10-20T07:31:09.530Z,34.50
2017-10-20T07:33:38.049Z,40.50
2017-10-20T07:36:06.483Z,38.10
2017-10-20T07:38:35.104Z,33.67
2017-10-20T07:41:04.316Z,41.77
2017-10-20T07:43:33.576Z,31.87
2017-10-20T07:46:02.027Z,31.57
2017-10-20T07:48:31.428Z,31.87
2017-10-20T07:51:00.619Z,27.00
2017-10-20T07:53:29.858Z,33.53
2017-10-20T07:55:59.253Z,34.53
2017-10-20T07:58:27.625Z,42.13
2017-10-20T08:00:56.024Z,47.93
2017-10-20T08:03:26.105Z,36.73
2017-10-20T08:05:55.924Z,47.27
2017-10-20T08:08:25.076Z,39.10
2017-10-20T08:10:53.493Z,47.60
2017-10-20T08:13:21.923Z,37.03
2017-10-20T08:15:50.363Z,38.60
2017-10-20T08:18:20.040Z,38.90
2017-10-20T08:20:48.447Z,43.30
2017-10-20T08:23:17.662Z,40.60
2017-10-20T08:25:46.936Z,40.20
2017-10-20T08:28:18.030Z,43.00
2017-10-20T08:30:46.407Z,53.90
2017-10-20T08:33:14.902Z,49.57
2017-10-20T08:35:44.562Z,36.53
2017-10-20T08:38:14.757Z,52.60
2017-10-20T08:40:45.255Z,49.60
2017-10-20T08:43:14.670Z,48.13
2017-10-20T08:45:44.097Z,37.80
2017-10-20T08:48:12.704Z,45.33
2017-10-20T08:50:41.530Z,45.40
2017-10-20T08:53:11.174Z,37.03
2017-10-20T08:55:39.827Z,41.07
2017-10-20T08:58:08.279Z,46.27
2017-10-20T09:00:37.636Z,43.87
2017-10-20T09:03:06.220Z,46.30
2017-10-20T09:05:35.466Z,54.60
2017-10-20T09:08:04.838Z,53.87
2017-10-20T09:10:34.002Z,51.33
2017-10-20T09:13:03.676Z,57.83
2017-10-20T09:15:32.076Z,51.10
2017-10-20T09:18:00.705Z,52.53
2017-10-20T09:20:30.100Z,53.73
2017-10-20T09:22:59.307Z,50.13
2017-10-20T09:25:28.704Z,44.00
2017-10-20T09:27:57.868Z,57.47
2017-10-20T09:30:26.464Z,45.47
2017-10-20T09:32:56.812Z,46.70
2017-10-20T09:35:26.969Z,39.57
2017-10-20T09:37:55.995Z,47.63
2017-10-20T09:40:24.479Z,48.70
2017-10-20T09:42:53.139Z,42.67
2017-10-20T09:45:22.186Z,36.50
2017-10-20T09:47:51.757Z,34.87
2017-10-20T09:50:20.659Z,46.40
2017-10-20T09:52:49.104Z,36.50
2017-10-20T09:55:17.597Z,33.00
2017-10-20T09:57:46.924Z,30.17
2017-10-20T10:00:15.434Z,35.17
2017-10-20T10:02:45.408Z,32.33
2017-10-20T10:05:13.854Z,24.50
2017-10-20T10:07:43.454Z,27.90
2017-10-20T10:10:12.341Z,24.10
2017-10-20T10:12:40.834Z,26.27
2017-10-20T10:15:09.259Z,22.63
2017-10-20T10:17:38.134Z,31.43
2017-10-20T10:20:06.623Z,26.10
2017-10-20T10:22:35.841Z,29.40
2017-10-20T10:25:04.324Z,31.77
2017-10-20T10:27:32.748Z,37.73
2017-10-20T10:30:01.240Z,27.13
2017-10-20T10:32:30.697Z,28.27
2017-10-20T10:35:00.006Z,28.73
2017-10-20T10:37:29.159Z,26.17
2017-10-20T10:39:57.645Z,26.23
2017-10-20T10:42:26.793Z,33.07
2017-10-20T10:44:56.453Z,30.07
2017-10-20T10:47:25.786Z,32.80
2017-10-20T10:49:55.016Z,26.93
2017-10-20T10:52:24.298Z,28.00
2017-10-20T10:57:28.176Z,21.77
2017-10-20T10:59:56.742Z,29.80
2017-10-20T11:02:25.175Z,20.07
2017-10-20T11:04:55.134Z,21.07
2017-10-20T11:07:37.476Z,27.53
2017-10-20T11:10:17.607Z,23.33
2017-10-20T11:12:46.821Z,24.40
2017-10-20T11:15:15.325Z,28.07
2017-10-20T11:17:44.025Z,23.80
2017-10-20T11:20:16.896Z,30.90
2017-10-20T11:22:46.072Z,19.17
2017-10-20T11:25:16.496Z,19.77
2017-10-20T11:27:46.194Z,27.20
2017-10-20T11:30:15.407Z,25.03
2017-10-20T11:32:45.835Z,22.50
2017-10-20T11:35:15.783Z,21.20
2017-10-20T11:37:45.324Z,36.43
2017-10-20T11:40:14.611Z,31.10
2017-10-20T11:42:43.049Z,30.43
2017-10-20T11:45:12.184Z,20.37
2017-10-20T11:47:40.962Z,22.23
2017-10-20T11:50:10.408Z,17.17
2017-10-20T11:52:38.819Z,21.23
2017-10-20T11:55:08.227Z,26.63
2017-10-20T11:57:38.245Z,24.70
2017-10-20T12:00:07.613Z,9.20
2017-10-20T12:02:36.201Z,13.07
2017-10-20T12:05:04.842Z,10.23
2017-10-20T12:07:35.455Z,7.03
2017-10-20T12:10:05.039Z,6.00
2017-10-20T12:12:33.563Z,7.03
2017-10-20T12:15:04.244Z,2.67
2017-10-20T12:17:34.606Z,4.47
2017-10-20T12:20:03.048Z,2.83
2017-10-20T12:22:31.450Z,3.40
2017-10-20T12:25:00.724Z,4.90
2017-10-20T12:27:32.395Z,4.53
2017-10-20T12:30:02.024Z,3.80
2017-10-20T12:32:35.140Z,2.17
2017-10-20T12:35:03.973Z,2.40
2017-10-20T12:37:32.469Z,2.33
2017-10-20T12:40:01.846Z,10.57
2017-10-20T12:42:31.668Z,1.20
2017-10-20T12:45:00.900Z,4.13
2017-10-20T12:47:29.272Z,3.03
2017-10-20T12:49:58.957Z,1.00
2017-10-20T12:52:28.131Z,2.50
2017-10-20T12:54:57.487Z,0.60
2017-10-20T12:57:26.131Z,2.63
2017-10-20T12:59:55.361Z,1.77
2017-10-20T13:02:25.420Z,2.83
2017-10-20T13:04:54.241Z,0.97
2017-10-20T13:07:23.595Z,1.33
2017-10-20T13:09:52.089Z,3.17
2017-10-20T13:12:21.168Z,2.37
2017-10-20T13:14:49.633Z,1.20
2017-10-20T13:17:18.306Z,2.63
2017-10-20T13:19:47.797Z,8.47
2017-10-20T13:22:16.385Z,1.37
2017-10-20T13:24:46.374Z,4.47
2017-10-20T13:27:16.268Z,0.60
2017-10-20T13:29:45.143Z,2.87
2017-10-20T13:32:14.409Z,1.17
2017-10-20T13:34:43.150Z,1.00
2017-10-20T13:37:11.542Z,1.63
2017-10-20T13:39:39.942Z,1.17
2017-10-20T13:42:09.130Z,1.47
2017-10-20T13:44:37.634Z,1.23
2017-10-20T13:47:06.905Z,1.00
2017-10-20T13:49:36.406Z,0.63
2017-10-20T13:52:04.991Z,0.60
2017-10-20T13:54:37.116Z,0.50
2017-10-20T13:57:06.128Z,1.50
2017-10-20T13:59:34.532Z,0.60
2017-10-20T14:02:03.164Z,1.80
2017-10-20T14:04:31.681Z,4.50
2017-10-20T14:07:01.012Z,5.43
2017-10-20T14:09:30.321Z,3.33
2017-10-20T14:11:58.945Z,2.77
2017-10-20T14:14:27.321Z,1.43
2017-10-20T14:16:57.026Z,1.00
2017-10-20T14:19:25.664Z,1.33
2017-10-20T14:21:55.250Z,4.10
2017-10-20T14:24:25.064Z,1.00
2017-10-20T14:26:53.527Z,3.87
2017-10-20T14:29:21.910Z,0.60
2017-10-20T14:31:51.412Z,0.80
2017-10-20T14:34:20.067Z,8.67
2017-10-20T14:36:48.447Z,3.17
2017-10-20T14:39:16.929Z,3.43
2017-10-20T14:41:46.377Z,3.53
2017-10-20T14:44:17.286Z,3.17
2017-10-20T14:46:46.350Z,1.90
2017-10-20T14:49:15.621Z,4.50
2017-10-20T14:51:44.792Z,3.33
2017-10-20T14:54:13.563Z,2.40
2017-10-20T14:56:45.267Z,1.23
2017-10-20T14:59:17.003Z,1.90
2017-10-20T15:01:49.754Z,7.03
2017-10-20T15:04:18.163Z,2.00
2017-10-20T15:06:46.649Z,1.90
2017-10-20T15:09:15.499Z,17.70
2017-10-20T15:11:45.740Z,4.60
2017-10-20T15:14:14.181Z,6.03
2017-10-20T15:16:43.863Z,1.10
2017-10-20T15:19:12.423Z,4.03
2017-10-20T15:21:41.472Z,3.17
2017-10-20T15:24:10.666Z,4.63
2017-10-20T15:26:39.913Z,1.00
2017-10-20T15:29:09.286Z,5.77
2017-10-20T15:31:37.999Z,3.20
2017-10-20T15:34:06.606Z,3.07
2017-10-20T15:36:35.050Z,9.73
2017-10-20T15:39:03.700Z,0.87
2017-10-20T15:41:32.127Z,2.50
2017-10-20T15:44:00.652Z,1.77
2017-10-20T15:46:29.284Z,2.43
2017-10-20T15:48:58.515Z,2.43
2017-10-20T15:51:26.923Z,3.90
2017-10-20T15:53:57.672Z,1.60
2017-10-20T15:56:26.669Z,3.77
2017-10-20T15:58:56.459Z,7.87
2017-10-20T16:01:25.862Z,3.30
2017-10-20T16:03:54.588Z,0.93
2017-10-20T16:06:23.467Z,2.90
2017-10-20T16:08:52.169Z,1.47
2017-10-20T16:11:20.662Z,4.13
2017-10-20T16:13:49.063Z,3.80
2017-10-20T16:16:18.369Z,2.70
2017-10-20T16:18:46.820Z,5.67
2017-10-20T16:21:15.257Z,3.60
2017-10-20T16:23:44.267Z,3.03
2017-10-20T16:26:13.657Z,3.30
2017-10-20T16:28:42.085Z,10.03
2017-10-20T16:31:11.432Z,9.30
2017-10-20T16:33:40.877Z,1.20
2017-10-20T16:36:09.300Z,1.33
2017-10-20T16:38:39.698Z,7.13
2017-10-20T16:41:08.157Z,3.83
2017-10-20T16:43:36.612Z,5.10
2017-10-20T16:46:08.188Z,3.43
2017-10-20T16:48:36.740Z,13.43
2017-10-20T16:51:05.322Z,4.87
2017-10-20T16:53:35.688Z,3.17
2017-10-20T16:56:04.129Z,3.53
2017-10-20T16:58:33.758Z,3.40
2017-10-20T17:01:02.193Z,6.77
2017-10-20T17:03:30.568Z,6.07
2017-10-20T17:05:58.957Z,2.60
2017-10-20T17:08:28.142Z,5.33
2017-10-20T17:10:56.563Z,5.60
2017-10-20T17:13:24.961Z,9.33
2017-10-20T17:15:53.369Z,6.60
2017-10-20T17:18:21.757Z,5.93
2017-10-20T17:20:50.144Z,4.70
2017-10-20T17:23:18.646Z,5.47
2017-10-20T17:25:47.788Z,6.23
2017-10-20T17:28:16.173Z,8.03
2017-10-20T17:30:44.656Z,6.20
2017-10-20T17:33:13.047Z,3.17
2017-10-20T17:35:41.435Z,6.53
2017-10-20T17:38:09.834Z,9.60
2017-10-20T17:40:38.222Z,5.60
2017-10-20T17:43:07.511Z,8.07
2017-10-20T17:45:40.266Z,8.63
2017-10-20T17:48:08.754Z,3.47
2017-10-20T17:50:41.131Z,4.50
2017-10-20T17:53:09.928Z,6.40
2017-10-20T17:55:38.323Z,15.67
2017-10-20T17:58:06.952Z,7.97
2017-10-20T18:00:35.542Z,4.53
2017-10-20T18:03:03.921Z,11.67
2017-10-20T18:05:32.504Z,7.50
2017-10-20T18:08:00.909Z,4.93
2017-10-20T18:10:29.327Z,6.97
2017-10-20T18:12:58.060Z,8.67
2017-10-20T18:15:26.496Z,10.47
2017-10-20T18:17:55.493Z,6.43
2017-10-20T18:20:24.037Z,6.03
2017-10-20T18:22:52.460Z,7.00
2017-10-20T18:25:20.913Z,9.50
2017-10-20T18:27:49.546Z,5.27
2017-10-20T18:30:17.906Z,4.17
2017-10-20T18:32:46.287Z,6.13
2017-10-20T18:35:15.455Z,6.67
2017-10-20T18:37:44.858Z,11.17
2017-10-20T18:40:14.550Z,2.47
2017-10-20T18:42:43.079Z,5.93
2017-10-20T18:45:12.550Z,3.50
2017-10-20T18:47:41.096Z,6.20
2017-10-20T18:50:09.922Z,4.47
2017-10-20T18:52:39.084Z,6.40
2017-10-20T18:55:07.462Z,8.43
2017-10-20T18:57:36.308Z,14.33
2017-10-20T19:00:05.503Z,9.43
2017-10-20T19:02:34.201Z,7.97
2017-10-20T19:05:02.639Z,10.63
2017-10-20T19:07:31.805Z,6.07
2017-10-20T19:10:00.193Z,8.90
2017-10-20T19:12:28.615Z,8.13
2017-10-20T19:14:57.338Z,6.93
2017-10-20T19:17:25.719Z,4.93
2017-10-20T19:19:54.158Z,11.60
2017-10-20T19:22:22.564Z,5.27
2017-10-20T19:24:50.965Z,9.97
2017-10-20T19:27:19.704Z,6.10
2017-10-20T19:29:48.077Z,7.67
2017-10-20T19:32:16.440Z,6.10
2017-10-20T19:34:44.868Z,9.47
2017-10-20T19:37:13.255Z,4.90
2017-10-20T19:39:44.812Z,8.60
2017-10-20T19:42:13.213Z,12.30
2017-10-20T19:44:43.555Z,6.63
2017-10-20T19:47:12.769Z,12.40
2017-10-20T19:49:42.104Z,12.23
2017-10-20T19:52:10.496Z,4.67
2017-10-20T19:54:38.914Z,10.10
2017-10-20T19:57:08.216Z,13.13
2017-10-20T19:59:36.593Z,7.57
2017-10-20T20:02:07.537Z,8.97
2017-10-20T20:04:36.890Z,6.87
2017-10-20T20:07:05.621Z,5.63
2017-10-20T20:09:34.214Z,4.60
2017-10-20T20:12:03.700Z,9.83
2017-10-20T20:14:33.667Z,4.70
2017-10-20T20:17:02.213Z,11.53
2017-10-20T20:19:31.509Z,12.57
2017-10-20T20:22:00.709Z,4.93
2017-10-20T20:24:34.053Z,7.80
2017-10-20T20:27:02.523Z,14.90
2017-10-20T20:29:30.958Z,15.77
2017-10-20T20:32:15.114Z,10.13
2017-10-20T20:34:44.318Z,9.80
2017-10-20T20:37:13.509Z,8.13
2017-10-20T20:39:42.693Z,9.50
2017-10-20T20:42:11.065Z,11.13
2017-10-20T20:44:40.987Z,8.80
2017-10-20T20:47:10.798Z,9.00
2017-10-20T20:49:39.310Z,10.40
2017-10-20T20:52:07.742Z,5.10
2017-10-20T20:54:36.154Z,12.10
2017-10-20T20:57:05.367Z,10.40
2017-10-20T20:59:33.797Z,6.33
2017-10-20T21:02:04.254Z,10.07
2017-10-20T21:04:35.277Z,13.03
2017-10-20T21:07:04.879Z,8.10
2017-10-20T21:09:36.246Z,6.67
2017-10-20T21:12:05.457Z,10.53
2017-10-20T21:14:36.707Z,10.27
2017-10-20T21:17:05.860Z,9.40
2017-10-20T21:19:34.422Z,7.87
2017-10-20T21:22:02.818Z,7.37
2017-10-20T21:24:31.275Z,4.70
2017-10-20T21:27:00.242Z,8.60
2017-10-20T21:29:29.783Z,10.60
2017-10-20T21:31:58.151Z,15.70
2017-10-20T21:34:26.908Z,9.00
2017-10-20T21:36:55.292Z,11.53
2017-10-20T21:39:24.429Z,8.03
2017-10-20T21:41:52.825Z,17.10
2017-10-20T21:44:21.176Z,11.20
2017-10-20T21:46:50.338Z,9.50
2017-10-20T21:49:18.839Z,9.43
2017-10-20T21:51:47.198Z,10.97
2017-10-20T21:54:15.669Z,7.93
2017-10-20T21:56:44.863Z,12.60
2017-10-20T21:59:13.596Z,8.07
2017-10-20T22:01:41.973Z,12.40
2017-10-20T22:04:10.540Z,11.70
2017-10-20T22:06:38.918Z,7.03
2017-10-20T22:09:07.374Z,16.63
2017-10-20T22:11:36.545Z,9.00
2017-10-20T22:14:06.265Z,7.17
2017-10-20T22:16:34.609Z,12.13
2017-10-20T22:19:03.034Z,11.53
2017-10-20T22:21:32.170Z,8.63
2017-10-20T22:24:00.734Z,13.83
2017-10-20T22:26:29.183Z,13.50
2017-10-20T22:28:57.556Z,12.67
2017-10-20T22:31:26.516Z,6.43
2017-10-20T22:33:55.046Z,14.23
2017-10-20T22:36:23.443Z,23.60
2017-10-20T22:38:51.883Z,6.17
2017-10-20T22:41:20.367Z,10.73
2017-10-20T22:43:48.787Z,14.13
2017-10-20T22:46:17.150Z,6.00
2017-10-20T22:48:46.518Z,7.50
2017-10-20T22:51:16.471Z,7.57
2017-10-20T22:53:45.105Z,9.13
2017-10-20T22:56:14.860Z,8.33
2017-10-20T22:58:44.043Z,13.10
2017-10-20T23:01:12.399Z,19.40
2017-10-20T23:03:42.421Z,15.33
2017-10-20T23:06:10.769Z,10.47
2017-10-20T23:08:39.118Z,8.57
2017-10-20T23:11:08.652Z,8.00
2017-10-20T23:13:38.119Z,20.50
2017-10-20T23:16:06.550Z,14.10
2017-10-20T23:18:35.297Z,7.50
2017-10-20T23:21:04.427Z,7.93
2017-10-20T23:23:32.981Z,9.30
2017-10-20T23:26:02.439Z,7.93
2017-10-20T23:28:31.128Z,6.33
2017-10-20T23:30:59.508Z,8.93
2017-10-20T23:33:28.569Z,8.20
2017-10-20T23:35:57.024Z,12.57
2017-10-20T23:38:27.216Z,18.03
2017-10-20T23:40:55.622Z,17.83
2017-10-20T23:43:24.750Z,12.53
2017-10-20T23:45:53.133Z,14.40
2017-10-20T23:48:23.511Z,10.63
2017-10-20T23:50:52.793Z,12.47
2017-10-20T23:53:21.163Z,14.70
2017-10-20T23:55:49.544Z,16.83
2017-10-20T23:58:17.905Z,17.70
